Time;durP1;ratioP1;P1;durP2;ratioP2;P2;SDS_P1;SDS_P2;PMS_P1;PMS_P2;Temp;Humidity;BMP_temperature;BMP_pressure;BME280_temperature;BME280_humidity;BME280_pressure;Samples;Min_cycle;Max_cycle;Signal;HPM_P1;HPM_P2
2022/08/10 00:01:43;;;;;;;4.65;3.00;;;;;;;17.66;98.58;99076.20;1727708;80;28183;-85
2022/08/10 00:04:09;;;;;;;3.67;2.60;;;;;;;17.62;98.74;99076.09;1726637;80;43033;-85
2022/08/10 00:06:35;;;;;;;5.60;2.60;;;;;;;17.58;98.88;99069.38;1732160;80;28073;-88
2022/08/10 00:09:02;;;;;;;5.83;2.47;;;;;;;17.54;99.12;99074.11;1727541;80;28479;-85
2022/08/10 00:11:28;;;;;;;5.42;2.25;;;;;;;17.40;99.18;99082.41;1716849;80;28111;-88
2022/08/10 00:13:54;;;;;;;4.62;2.62;;;;;;;17.18;99.25;99080.47;1698216;82;28137;-85
2022/08/10 00:18:47;;;;;;;4.47;2.33;;;;;;;16.92;99.86;99074.27;1689652;83;28255;-88
2022/08/10 00:21:14;;;;;;;3.87;2.20;;;;;;;16.93;100.00;99074.62;1730633;80;28097;-85
2022/08/10 00:23:40;;;;;;;5.05;2.67;;;;;;;17.00;100.00;99071.83;1716989;80;28170;-85
2022/08/10 00:26:07;;;;;;;5.78;2.85;;;;;;;17.07;100.00;99075.59;1736853;80;28099;-85
2022/08/10 00:28:37;;;;;;;3.87;2.90;;;;;;;17.14;100.00;99071.45;1717935;80;28065;-85
2022/08/10 00:31:01;;;;;;;3.87;2.60;;;;;;;17.17;100.00;99070.37;1737318;81;28180;-85
2022/08/10 00:33:27;;;;;;;3.90;2.22;;;;;;;17.19;100.00;99072.86;1737386;80;28057;-87
2022/08/10 00:35:55;;;;;;;5.40;2.70;;;;;;;17.20;100.00;99067.92;1699253;82;28067;-87
2022/08/10 00:38:21;;;;;;;7.17;2.67;;;;;;;17.20;100.00;99070.09;1680814;83;28644;-87
2022/08/10 00:40:49;;;;;;;5.62;2.95;;;;;;;17.22;100.00;99073.94;1688407;82;28002;-86
2022/08/10 00:43:15;;;;;;;7.72;2.25;;;;;;;17.20;100.00;99068.77;1712596;81;28090;-87
2022/08/10 00:45:41;;;;;;;6.33;3.12;;;;;;;17.18;100.00;99068.56;1723269;80;28158;-87
2022/08/10 00:48:07;;;;;;;3.40;2.60;;;;;;;17.08;100.00;99064.53;1693297;82;28064;-87
2022/08/10 00:50:34;;;;;;;5.37;2.87;;;;;;;17.05;100.00;99066.97;1681549;83;43163;-87
2022/08/10 00:53:00;;;;;;;4.35;2.52;;;;;;;17.06;100.00;99061.20;1652367;84;28115;-86
2022/08/10 00:55:28;;;;;;;6.30;2.58;;;;;;;17.01;100.00;99071.34;1676705;83;28126;-87
2022/08/10 00:57:57;;;;;;;6.33;2.72;;;;;;;16.79;100.00;99064.89;1678709;82;28169;-85
2022/08/10 01:00:24;;;;;;;5.90;2.22;;;;;;;16.65;100.00;99072.17;1659935;83;28157;-86
2022/08/10 01:02:51;;;;;;;5.55;2.70;;;;;;;16.59;100.00;99070.52;1659844;83;28018;-86
2022/08/10 01:05:21;;;;;;;5.58;2.60;;;;;;;16.58;100.00;99070.16;1678915;83;28286;-86
2022/08/10 01:08:08;;;;;;;3.73;2.00;;;;;;;16.62;100.00;99067.64;1677430;83;28130;-88
2022/08/10 01:10:49;;;;;;;4.28;2.47;;;;;;;16.72;100.00;99065.89;1671647;83;28059;-87
2022/08/10 01:13:12;;;;;;;4.72;2.50;;;;;;;16.79;100.00;99055.16;1689452;82;28102;-86
2022/08/10 01:15:57;;;;;;;4.53;2.50;;;;;;;16.81;100.00;99054.52;1691580;82;43038;-87
2022/08/10 01:18:36;;;;;;;4.10;2.60;;;;;;;16.86;100.00;99057.61;1694321;81;28012;-89
2022/08/10 01:21:34;;;;;;;4.80;2.45;;;;;;;16.83;100.00;99064.97;1715673;80;28187;-86
2022/08/10 01:24:07;;;;;;;4.12;2.25;;;;;;;16.77;100.00;99066.33;1696472;83;28235;-88
2022/08/10 01:26:52;;;;;;;4.45;2.85;;;;;;;16.69;100.00;99060.88;1676817;81;28091;-87
2022/08/10 01:29:46;;;;;;;5.25;2.77;;;;;;;16.53;100.00;99065.23;1692402;82;28066;-89
2022/08/10 01:32:15;;;;;;;6.35;3.02;;;;;;;16.41;100.00;99058.37;1630055;84;28081;-86
2022/08/10 01:34:54;;;;;;;7.47;2.65;;;;;;;16.29;100.00;99060.22;1662051;83;28164;-86
2022/08/10 01:37:24;;;;;;;3.72;2.47;;;;;;;16.22;100.00;99063.02;1706293;82;28019;-86
2022/08/10 01:39:53;;;;;;;6.03;2.90;;;;;;;16.12;100.00;99071.82;1716156;80;28127;-88
2022/08/10 01:42:22;;;;;;;4.22;2.52;;;;;;;16.14;100.00;99069.42;1716662;80;28028;-86
2022/08/10 01:44:58;;;;;;;3.65;2.50;;;;;;;16.26;100.00;99066.22;1701715;82;28175;-85
2022/08/10 01:50:16;;;;;;;4.55;2.70;;;;;;;16.42;100.00;99066.62;1741324;80;28075;-86
2022/08/10 01:52:45;;;;;;;5.12;2.87;;;;;;;16.46;100.00;99063.27;1651918;84;28094;-87
2022/08/10 01:55:13;;;;;;;6.30;2.72;;;;;;;16.46;100.00;99064.58;1693288;82;28273;-85
2022/08/10 01:57:41;;;;;;;5.58;2.95;;;;;;;16.44;100.00;99066.02;1694555;81;27993;-87
2022/08/10 02:00:09;;;;;;;3.08;2.52;;;;;;;16.45;100.00;99069.50;1697546;82;28179;-86
2022/08/10 02:02:37;;;;;;;4.90;2.80;;;;;;;16.43;100.00;99064.34;1689129;82;28038;-86
2022/08/10 02:05:05;;;;;;;4.33;2.60;;;;;;;16.40;100.00;99065.09;1684347;82;28033;-89
2022/08/10 02:07:33;;;;;;;4.22;2.40;;;;;;;16.36;100.00;99068.48;1683585;83;28119;-87
2022/08/10 02:10:03;;;;;;;5.97;3.47;;;;;;;16.28;100.00;99067.79;1682070;82;28026;-89
2022/08/10 02:12:32;;;;;;;7.15;3.27;;;;;;;16.32;100.00;99057.80;1738392;80;28077;-87
2022/08/10 02:15:06;;;;;;;5.58;2.55;;;;;;;16.38;100.00;99064.37;1730005;80;28062;-88
2022/08/10 02:17:38;;;;;;;6.15;2.45;;;;;;;16.38;100.00;99059.92;1721957;80;28291;-89
2022/08/10 02:20:08;;;;;;;7.05;3.50;;;;;;;16.35;100.00;99065.48;1706849;82;28097;-87
2022/08/10 02:22:36;;;;;;;5.50;2.60;;;;;;;16.27;100.00;99065.27;1719284;80;28028;-88
2022/08/10 02:25:05;;;;;;;6.00;2.60;;;;;;;16.08;100.00;99075.20;1734612;80;28202;-87
2022/08/10 02:27:33;;;;;;;6.33;2.80;;;;;;;15.97;100.00;99074.41;1737073;80;28128;-87
2022/08/10 02:30:00;;;;;;;5.45;2.65;;;;;;;15.86;100.00;99066.88;1735858;80;28080;-89
2022/08/10 02:32:29;;;;;;;4.33;2.40;;;;;;;15.90;100.00;99068.78;1717843;80;28168;-88
2022/08/10 02:34:57;;;;;;;6.35;2.80;;;;;;;15.96;100.00;99073.56;1710521;81;28080;-87
2022/08/10 02:37:26;;;;;;;5.12;2.75;;;;;;;16.03;100.00;99082.67;1687778;82;28124;-88
2022/08/10 02:39:53;;;;;;;4.05;2.70;;;;;;;16.05;100.00;99079.88;1661489;84;28095;-85
2022/08/10 02:42:26;;;;;;;6.30;3.12;;;;;;;16.08;100.00;99082.28;1651969;83;28132;-86
2022/08/10 02:44:56;;;;;;;8.60;3.17;;;;;;;16.11;100.00;99086.83;1671007;83;28231;-87
2022/08/10 02:47:31;;;;;;;4.42;2.83;;;;;;;16.11;100.00;99093.91;1682185;83;28072;-86
2022/08/10 02:50:37;;;;;;;3.75;2.65;;;;;;;16.04;100.00;99092.75;1678978;83;28237;-86
2022/08/10 02:53:28;;;;;;;5.65;3.20;;;;;;;15.99;100.00;99089.14;1667620;85;28365;-87
2022/08/10 02:56:04;;;;;;;6.45;2.90;;;;;;;15.96;100.00;99085.44;1607130;87;28093;-87
2022/08/10 02:58:46;;;;;;;3.30;2.72;;;;;;;15.90;100.00;99092.54;1590459;87;28057;-86
2022/08/10 03:01:16;;;;;;;3.47;2.47;;;;;;;15.82;100.00;99094.47;1640042;83;28004;-87
2022/08/10 03:03:48;;;;;;;5.67;2.87;;;;;;;15.68;100.00;99099.19;1681027;83;28186;-85
2022/08/10 03:06:18;;;;;;;4.37;3.17;;;;;;;15.54;100.00;99097.66;1670938;84;28113;-88
2022/08/10 03:08:46;;;;;;;5.25;2.77;;;;;;;15.44;100.00;99100.14;1734027;80;28275;-86
2022/08/10 03:11:28;;;;;;;3.60;3.00;;;;;;;15.40;100.00;99096.07;1717972;80;28116;-86
2022/08/10 03:13:58;;;;;;;6.15;3.72;;;;;;;15.38;100.00;99104.57;1727768;80;28222;-85
2022/08/10 03:16:26;;;;;;;4.78;3.05;;;;;;;15.39;100.00;99106.26;1739741;80;28091;-85
2022/08/10 03:18:54;;;;;;;5.05;3.35;;;;;;;15.43;100.00;99108.19;1737088;80;28123;-87
2022/08/10 03:21:22;;;;;;;4.87;2.92;;;;;;;15.44;100.00;99099.30;1736467;80;28147;-87
2022/08/10 03:23:50;;;;;;;5.92;3.45;;;;;;;15.45;100.00;99099.19;1742022;80;28266;-88
2022/08/10 03:26:17;;;;;;;5.30;3.27;;;;;;;15.46;100.00;99101.34;1749149;80;27990;-85
2022/08/10 03:28:44;;;;;;;4.15;2.72;;;;;;;15.44;100.00;99104.56;1729349;80;28154;-86
2022/08/10 03:31:14;;;;;;;5.08;3.27;;;;;;;15.38;100.00;99108.53;1718017;80;28221;-88
2022/08/10 03:33:44;;;;;;;4.35;3.00;;;;;;;15.38;100.00;99103.25;1733891;79;28206;-86
2022/08/10 03:36:11;;;;;;;5.40;2.95;;;;;;;15.33;100.00;99109.84;1702541;81;28012;-89
2022/08/10 03:38:44;;;;;;;4.85;3.02;;;;;;;15.37;100.00;99112.16;1714631;80;28149;-88
2022/08/10 03:41:12;;;;;;;4.58;3.08;;;;;;;15.43;100.00;99113.47;1698923;80;28051;-87
2022/08/10 03:43:43;;;;;;;3.20;2.75;;;;;;;15.44;100.00;99118.60;1725007;81;28092;-86
2022/08/10 03:46:12;;;;;;;4.58;3.10;;;;;;;15.35;100.00;99115.38;1734627;80;28272;-88
2022/08/10 03:48:42;;;;;;;4.83;2.50;;;;;;;15.21;100.00;99117.42;1701922;81;28054;-87
2022/08/10 03:51:10;;;;;;;4.33;2.75;;;;;;;14.99;100.00;99110.34;1731750;80;28111;-87
2022/08/10 03:53:37;;;;;;;4.17;2.75;;;;;;;14.98;100.00;99116.09;1730689;80;28153;-85
2022/08/10 03:56:08;;;;;;;3.60;3.10;;;;;;;15.04;100.00;99112.14;1736942;80;28071;-87
2022/08/10 03:58:44;;;;;;;3.10;2.75;;;;;;;15.09;100.00;99109.98;1741018;80;28015;-86
2022/08/10 04:01:07;;;;;;;4.15;2.72;;;;;;;15.21;100.00;99110.36;1718359;80;28028;-89
2022/08/10 04:03:38;;;;;;;3.52;2.60;;;;;;;15.31;100.00;99111.79;1744075;80;28166;-86
2022/08/10 04:06:02;;;;;;;5.17;2.95;;;;;;;15.31;100.00;99117.91;1726861;80;28090;-87
2022/08/10 04:08:28;;;;;;;6.45;3.12;;;;;;;15.29;100.00;99127.72;1734067;80;28083;-87
2022/08/10 04:10:54;;;;;;;5.20;3.27;;;;;;;15.27;100.00;99121.75;1715814;80;28184;-88
2022/08/10 04:13:21;;;;;;;5.05;2.83;;;;;;;15.34;100.00;99128.20;1728721;80;28119;-88
2022/08/10 04:15:48;;;;;;;3.10;2.67;;;;;;;15.42;100.00;99131.09;1720863;80;28026;-87
2022/08/10 04:18:14;;;;;;;4.67;3.00;;;;;;;15.53;100.00;99131.59;1749979;80;27994;-88
2022/08/10 04:20:53;;;;;;;6.50;3.00;;;;;;;15.63;100.00;99133.02;1710904;80;28114;-87
2022/08/10 04:23:23;;;;;;;3.33;2.98;;;;;;;15.72;100.00;99136.23;1718076;81;28112;-86
2022/08/10 04:25:50;;;;;;;4.22;2.85;;;;;;;15.83;100.00;99132.26;1710072;80;28184;-86
2022/08/10 04:28:19;;;;;;;3.17;2.67;;;;;;;15.87;100.00;99138.48;1696787;82;28011;-85
2022/08/10 04:30:47;;;;;;;6.17;2.62;;;;;;;15.80;100.00;99144.39;1749079;80;28192;-88
2022/08/10 04:33:16;;;;;;;3.80;2.70;;;;;;;15.70;100.00;99140.34;1725726;80;28096;-86
2022/08/10 04:35:45;;;;;;;2.90;2.33;;;;;;;15.62;100.00;99136.61;1707218;81;28034;-85
2022/08/10 04:38:13;;;;;;;3.75;2.85;;;;;;;15.65;100.00;99142.50;1722373;80;28110;-85
2022/08/10 04:40:40;;;;;;;5.33;2.83;;;;;;;15.80;100.00;99134.68;1717541;81;28066;-85
2022/08/10 04:43:06;;;;;;;4.47;2.50;;;;;;;15.92;100.00;99138.14;1710782;80;28104;-86
2022/08/10 04:45:33;;;;;;;4.87;2.60;;;;;;;15.99;100.00;99137.98;1718461;81;28078;-85
2022/08/10 04:48:02;;;;;;;6.10;3.47;;;;;;;16.02;100.00;99139.07;1707689;80;28065;-85
2022/08/10 04:50:28;;;;;;;3.83;2.62;;;;;;;16.07;100.00;99139.53;1741469;80;28162;-86
2022/08/10 04:52:54;;;;;;;4.53;2.35;;;;;;;16.15;100.00;99142.38;1735278;80;28166;-86
2022/08/10 04:55:20;;;;;;;5.83;2.87;;;;;;;16.22;100.00;99143.56;1737326;80;28133;-86
2022/08/10 04:57:46;;;;;;;10.68;2.75;;;;;;;16.24;100.00;99143.45;1732856;80;28019;-89
2022/08/10 05:00:13;;;;;;;3.87;2.92;;;;;;;16.25;100.00;99138.53;1726637;80;28109;-86
2022/08/10 05:02:42;;;;;;;4.80;3.17;;;;;;;16.28;100.00;99141.75;1734273;80;28032;-86
2022/08/10 05:05:10;;;;;;;6.17;3.10;;;;;;;16.35;100.00;99146.53;1735273;80;28217;-85
2022/08/10 05:07:36;;;;;;;5.62;3.77;;;;;;;16.41;100.00;99152.63;1734299;80;28060;-86
2022/08/10 05:10:03;;;;;;;5.92;3.90;;;;;;;16.44;100.00;99150.56;1735604;80;28146;-89
2022/08/10 05:12:34;;;;;;;6.12;3.80;;;;;;;16.43;100.00;99154.65;1722030;80;28170;-86
2022/08/10 05:15:00;;;;;;;5.47;3.30;;;;;;;16.45;100.00;99150.92;1722969;80;28112;-86
2022/08/10 05:17:26;;;;;;;4.90;3.70;;;;;;;16.51;100.00;99156.19;1687867;83;28150;-86
2022/08/10 05:19:53;;;;;;;5.45;3.70;;;;;;;16.54;100.00;99155.92;1726988;80;28136;-85
2022/08/10 05:22:20;;;;;;;8.08;3.50;;;;;;;16.63;100.00;99168.43;1714002;80;28107;-85
2022/08/10 05:24:46;;;;;;;7.10;3.65;;;;;;;16.68;100.00;99168.41;1698700;81;28212;-85
2022/08/10 05:27:12;;;;;;;6.17;3.62;;;;;;;16.74;100.00;99171.02;1715456;81;28081;-86
2022/08/10 05:29:38;;;;;;;5.78;3.60;;;;;;;16.81;100.00;99164.23;1740378;80;28155;-86
2022/08/10 05:32:04;;;;;;;7.53;3.90;;;;;;;16.87;100.00;99161.56;1730843;80;45411;-86
2022/08/10 05:34:30;;;;;;;5.90;4.10;;;;;;;16.92;100.00;99160.20;1731414;80;28286;-86
2022/08/10 05:37:00;;;;;;;5.95;4.08;;;;;;;16.90;100.00;99156.88;1734338;80;28113;-86
2022/08/10 05:39:28;;;;;;;6.15;4.00;;;;;;;16.92;100.00;99154.91;1729018;80;28035;-85
2022/08/10 05:42:01;;;;;;;10.25;3.72;;;;;;;16.95;100.00;99149.39;1730579;80;28088;-86
2022/08/10 05:44:28;;;;;;;9.00;4.65;;;;;;;16.96;100.00;99147.10;1711787;80;28279;-85
2022/08/10 05:46:54;;;;;;;5.67;4.92;;;;;;;16.90;100.00;99146.77;1734524;80;28127;-85
2022/08/10 05:49:22;;;;;;;6.55;4.17;;;;;;;16.73;100.00;99156.96;1726102;80;28128;-88
2022/08/10 05:51:56;;;;;;;8.50;4.72;;;;;;;16.62;100.00;99164.10;1730978;80;28242;-87
2022/08/10 05:54:24;;;;;;;7.60;4.08;;;;;;;16.53;100.00;99166.97;1726326;79;28096;-88
2022/08/10 05:56:51;;;;;;;7.05;3.95;;;;;;;16.52;100.00;99161.84;1711178;80;28115;-86
2022/08/10 05:59:18;;;;;;;6.47;4.67;;;;;;;16.47;100.00;99162.22;1685508;82;28136;-86
2022/08/10 06:01:47;;;;;;;7.25;5.12;;;;;;;16.47;100.00;99164.02;1663674;82;28162;-86
2022/08/10 06:04:17;;;;;;;7.62;4.40;;;;;;;16.50;100.00;99165.08;1667304;83;28054;-87
2022/08/10 06:06:46;;;;;;;6.75;4.22;;;;;;;16.54;100.00;99162.05;1698881;81;28088;-86
2022/08/10 06:09:14;;;;;;;4.67;4.12;;;;;;;16.66;100.00;99167.68;1712865;81;28134;-86
2022/08/10 06:11:44;;;;;;;6.12;4.20;;;;;;;16.72;100.00;99165.85;1696197;82;28226;-85
2022/08/10 06:17:00;;;;;;;10.43;4.92;;;;;;;16.73;100.00;99169.34;1717136;81;28035;-89
2022/08/10 06:19:27;;;;;;;9.35;4.53;;;;;;;16.88;100.00;99167.20;1695014;80;28038;-88
2022/08/10 06:21:56;;;;;;;9.50;4.60;;;;;;;16.85;100.00;99172.28;1710935;81;28104;-88
2022/08/10 06:24:28;;;;;;;7.53;4.65;;;;;;;16.84;100.00;99170.60;1699709;81;28014;-86
2022/08/10 06:26:54;;;;;;;6.87;4.60;;;;;;;16.86;100.00;99164.69;1730451;80;28104;-86
2022/08/10 06:29:21;;;;;;;8.38;4.60;;;;;;;16.84;100.00;99167.12;1714021;80;27994;-86
2022/08/10 06:31:50;;;;;;;6.87;4.20;;;;;;;16.88;100.00;99168.53;1731045;80;28131;-86
2022/08/10 06:34:25;;;;;;;6.53;4.15;;;;;;;16.92;100.00;99161.53;1741009;80;28265;-85
2022/08/10 06:37:01;;;;;;;6.80;4.25;;;;;;;16.94;100.00;99160.08;1731901;80;28075;-87
2022/08/10 06:39:27;;;;;;;6.78;4.37;;;;;;;16.98;100.00;99161.02;1734805;80;28107;-86
2022/08/10 06:41:57;;;;;;;8.38;4.30;;;;;;;17.00;100.00;99163.05;1746296;80;28109;-88
2022/08/10 06:44:27;;;;;;;6.33;4.75;;;;;;;17.07;100.00;99166.02;1735919;80;28132;-89
2022/08/10 06:47:01;;;;;;;6.55;4.62;;;;;;;17.14;100.00;99160.55;1716522;81;28198;-87
2022/08/10 06:49:32;;;;;;;7.65;4.53;;;;;;;17.18;100.00;99165.11;1743394;79;28161;-87
2022/08/10 06:52:01;;;;;;;10.82;4.65;;;;;;;17.21;100.00;99164.84;1691315;82;28181;-87
2022/08/10 06:54:30;;;;;;;10.32;4.47;;;;;;;17.23;100.00;99161.59;1648273;84;28098;-87
2022/08/10 06:57:04;;;;;;;7.83;4.42;;;;;;;17.27;100.00;99167.80;1660189;83;28063;-86
2022/08/10 06:59:39;;;;;;;9.20;4.42;;;;;;;17.34;100.00;99164.99;1660765;84;28118;-86
2022/08/10 07:02:09;;;;;;;7.30;4.47;;;;;;;17.43;100.00;99162.03;1703676;81;28221;-86
2022/08/10 07:04:45;;;;;;;10.18;4.62;;;;;;;17.49;100.00;99162.83;1717583;80;28022;-86
2022/08/10 07:07:20;;;;;;;8.48;4.58;;;;;;;17.57;100.00;99161.17;1735343;80;28034;-85
2022/08/10 07:09:50;;;;;;;7.75;4.10;;;;;;;17.69;100.00;99166.41;1732003;79;28107;-86
2022/08/10 07:12:20;;;;;;;5.87;3.77;;;;;;;17.77;100.00;99162.13;1733619;80;27997;-89
2022/08/10 07:14:47;;;;;;;10.13;3.87;;;;;;;17.86;100.00;99162.63;1738015;80;28148;-86
2022/08/10 07:17:17;;;;;;;8.08;4.03;;;;;;;18.03;100.00;99160.30;1719877;80;28021;-86
2022/08/10 07:19:55;;;;;;;8.75;3.90;;;;;;;18.11;100.00;99165.77;1729905;80;28029;-86
2022/08/10 07:22:25;;;;;;;6.65;3.80;;;;;;;18.16;100.00;99168.36;1746623;80;28281;-90
2022/08/10 07:24:55;;;;;;;6.10;3.77;;;;;;;18.24;100.00;99166.34;1723654;80;27996;-89
2022/08/10 07:27:24;;;;;;;8.03;3.35;;;;;;;18.34;100.00;99162.72;1735071;80;28091;-90
2022/08/10 07:29:57;;;;;;;6.08;3.35;;;;;;;18.43;100.00;99170.34;1739326;79;28090;-86
2022/08/10 07:32:23;;;;;;;6.65;3.40;;;;;;;18.51;100.00;99166.98;1712752;80;28064;-86
2022/08/10 07:34:52;;;;;;;6.03;3.35;;;;;;;18.62;100.00;99164.22;1730797;80;28180;-86
2022/08/10 07:37:20;;;;;;;6.95;3.50;;;;;;;18.66;100.00;99163.80;1730081;80;28001;-89
2022/08/10 07:39:48;;;;;;;6.12;3.05;;;;;;;18.72;100.00;99159.27;1703597;82;28104;-88
2022/08/10 07:42:17;;;;;;;6.28;3.15;;;;;;;18.81;100.00;99162.91;1731372;80;28170;-86
2022/08/10 07:44:46;;;;;;;5.17;3.17;;;;;;;18.91;100.00;99161.56;1719871;80;28097;-87
2022/08/10 07:47:15;;;;;;;3.00;2.60;;;;;;;18.98;100.00;99156.88;1707285;81;28083;-86
2022/08/10 07:49:45;;;;;;;3.87;2.40;;;;;;;19.06;100.00;99161.45;1748231;80;28195;-86
2022/08/10 07:52:11;;;;;;;5.97;2.10;;;;;;;19.16;100.00;99155.14;1705503;80;28218;-86
2022/08/10 07:54:44;;;;;;;7.08;2.98;;;;;;;19.29;100.00;99162.80;1683590;83;28092;-87
2022/08/10 07:57:13;;;;;;;5.05;2.25;;;;;;;19.36;100.00;99165.72;1720054;80;28165;-86
2022/08/10 07:59:43;;;;;;;4.00;2.37;;;;;;;19.43;100.00;99158.34;1706805;81;28202;-87
2022/08/10 08:02:19;;;;;;;2.85;2.35;;;;;;;19.54;100.00;99160.84;1671385;83;28152;-86
2022/08/10 08:04:52;;;;;;;3.67;2.58;;;;;;;19.62;100.00;99158.31;1694699;82;28206;-86
2022/08/10 08:07:17;;;;;;;3.25;2.00;;;;;;;19.69;100.00;99159.90;1667531;83;28108;-89
2022/08/10 08:09:44;;;;;;;2.60;2.00;;;;;;;19.74;100.00;99161.62;1683697;82;28082;-86
2022/08/10 08:12:13;;;;;;;3.40;2.20;;;;;;;19.82;100.00;99163.03;1685338;83;28147;-89
2022/08/10 08:14:43;;;;;;;6.10;1.98;;;;;;;19.90;100.00;99163.63;1673054;83;28489;-90
2022/08/10 08:17:13;;;;;;;5.40;2.50;;;;;;;19.98;100.00;99165.04;1685338;82;28178;-86
2022/08/10 08:19:43;;;;;;;5.22;2.10;;;;;;;20.05;100.00;99163.47;1699207;81;28264;-86
2022/08/10 08:22:10;;;;;;;3.65;2.62;;;;;;;20.12;100.00;99165.88;1664210;83;28159;-87
2022/08/10 08:24:36;;;;;;;4.17;2.10;;;;;;;20.19;100.00;99156.30;1685441;83;28171;-87
2022/08/10 08:27:03;;;;;;;3.40;1.92;;;;;;;20.25;100.00;99168.16;1654490;83;42348;-86
2022/08/10 08:29:33;;;;;;;2.80;2.15;;;;;;;20.30;100.00;99161.89;1738654;80;28152;-86
2022/08/10 08:32:02;;;;;;;5.50;1.87;;;;;;;20.39;100.00;99159.70;1740899;80;28123;-90
2022/08/10 08:34:30;;;;;;;2.60;1.95;;;;;;;20.44;100.00;99152.95;1721835;80;28080;-89
2022/08/10 08:36:59;;;;;;;2.72;1.72;;;;;;;20.57;100.00;99159.20;1740445;80;28082;-86
2022/08/10 08:39:25;;;;;;;4.58;1.75;;;;;;;20.65;100.00;99159.77;1732304;80;28132;-86
2022/08/10 08:42:19;;;;;;;3.40;2.05;;;;;;;20.72;100.00;99160.84;1732157;80;28093;-86
2022/08/10 08:45:06;;;;;;;3.58;1.60;;;;;;;20.74;100.00;99162.83;1723501;80;28104;-90
2022/08/10 08:48:09;;;;;;;4.22;1.70;;;;;;;20.76;100.00;99162.20;1734851;80;28022;-90
2022/08/10 08:50:58;;;;;;;3.77;1.72;;;;;;;20.81;100.00;99167.89;1724694;80;28050;-86
2022/08/10 08:53:42;;;;;;;1.95;1.55;;;;;;;20.91;100.00;99152.66;1663239;83;28189;-86
2022/08/10 08:56:16;;;;;;;1.98;1.60;;;;;;;21.01;100.00;99158.72;1645123;84;27987;-86
2022/08/10 08:58:55;;;;;;;1.65;1.55;;;;;;;21.07;100.00;99153.27;1735206;81;28124;-90
2022/08/10 09:01:31;;;;;;;2.65;1.80;;;;;;;21.10;100.00;99149.83;1743276;80;28194;-89
2022/08/10 09:04:20;;;;;;;1.67;1.50;;;;;;;21.16;99.96;99151.06;1736975;80;28155;-90
2022/08/10 09:07:07;;;;;;;2.85;1.67;;;;;;;21.20;98.63;99153.73;1725015;80;28793;-87
2022/08/10 09:09:54;;;;;;;1.45;1.15;;;;;;;21.25;97.18;99157.60;1727283;80;27998;-89
2022/08/10 09:12:45;;;;;;;2.92;1.60;;;;;;;21.34;96.41;99157.14;1732618;80;28111;-89
2022/08/10 09:15:24;;;;;;;2.50;1.50;;;;;;;21.42;95.09;99148.37;1667940;81;28023;-87
2022/08/10 09:18:03;;;;;;;2.77;1.40;;;;;;;21.50;94.07;99149.73;1725108;81;28257;-86
2022/08/10 09:20:36;;;;;;;2.25;1.50;;;;;;;21.59;93.29;99151.47;1741091;80;28021;-90
2022/08/10 09:23:15;;;;;;;1.77;1.30;;;;;;;21.68;92.69;99151.83;1719132;80;28106;-89
2022/08/10 09:25:44;;;;;;;2.17;1.30;;;;;;;21.74;92.14;99149.02;1735432;79;28069;-86
2022/08/10 09:28:17;;;;;;;1.80;1.50;;;;;;;21.86;91.57;99155.73;1728335;80;28117;-86
2022/08/10 09:30:47;;;;;;;4.45;1.60;;;;;;;21.82;90.05;99155.20;1681817;83;28279;-87
2022/08/10 09:33:16;;;;;;;3.95;2.00;;;;;;;21.86;89.27;99147.25;1664941;83;28293;-86
2022/08/10 09:36:13;;;;;;;2.90;1.52;;;;;;;21.96;88.81;99144.47;1683446;82;28104;-86
2022/08/10 09:38:54;;;;;;;5.75;1.32;;;;;;;22.04;88.56;99143.98;1641085;85;28124;-86
2022/08/10 09:41:39;;;;;;;;;;;;;;;22.07;87.42;99148.17;1621054;85;28130;-86
2022/08/10 09:44:11;;;;;;;2.95;1.37;;;;;;;22.06;86.31;99143.34;1649359;83;26216;-89
2022/08/10 09:47:01;;;;;;;1.98;1.75;;;;;;;22.07;85.39;99142.34;1688014;81;28176;-87
2022/08/10 09:49:46;;;;;;;2.70;1.50;;;;;;;22.16;85.18;99142.35;1652735;84;28193;-89
2022/08/10 09:52:15;;;;;;;3.75;1.60;;;;;;;22.26;85.03;99138.54;1675512;83;28242;-90
2022/08/10 09:55:08;;;;;;;3.40;1.57;;;;;;;22.31;84.34;99143.41;1628782;85;28049;-86
2022/08/10 09:57:47;;;;;;;2.72;1.45;;;;;;;22.38;84.20;99137.73;1703896;82;28011;-89
2022/08/10 10:00:22;;;;;;;3.30;1.85;;;;;;;22.45;83.77;99130.74;1709006;81;28210;-89
2022/08/10 10:03:00;;;;;;;3.22;2.02;;;;;;;22.54;83.42;99128.41;1711279;80;28148;-86
2022/08/10 10:05:45;;;;;;;5.33;1.70;;;;;;;22.56;82.68;99118.91;1701892;80;28078;-86
2022/08/10 10:08:35;;;;;;;3.55;1.87;;;;;;;22.65;82.45;99121.90;1701059;80;28116;-86
2022/08/10 10:11:35;;;;;;;5.70;1.80;;;;;;;22.73;82.03;99128.12;1717417;81;28150;-86
2022/08/10 10:14:19;;;;;;;4.42;1.82;;;;;;;22.75;81.22;99114.09;1704145;80;28154;-87
2022/08/10 10:17:09;;;;;;;6.35;1.52;;;;;;;22.79;80.61;99112.78;1699790;80;28077;-89
2022/08/10 10:19:51;;;;;;;2.12;1.50;;;;;;;22.68;79.17;99111.75;1741621;80;28012;-89
2022/08/10 10:22:51;;;;;;;2.92;1.92;;;;;;;22.52;78.23;99115.25;1740601;80;28115;-86
2022/08/10 10:25:48;;;;;;;4.55;1.90;;;;;;;22.36;77.42;99108.58;1725951;80;28243;-87
2022/08/10 10:28:30;;;;;;;2.17;1.85;;;;;;;22.25;76.77;99102.73;1722290;80;28115;-86
2022/08/10 10:31:25;;;;;;;3.12;1.87;;;;;;;22.14;76.39;99101.70;1737572;80;28091;-87
2022/08/10 10:34:14;;;;;;;2.00;1.57;;;;;;;22.11;76.14;99094.36;1739236;80;28084;-87
2022/08/10 10:36:43;;;;;;;2.52;1.65;;;;;;;22.27;76.54;99092.70;1699169;82;28142;-86
2022/08/10 10:39:11;;;;;;;2.60;1.65;;;;;;;22.46;76.87;99085.73;1662739;83;28124;-85
2022/08/10 10:42:06;;;;;;;2.17;1.62;;;;;;;22.62;77.10;99093.73;1660801;84;27995;-86
2022/08/10 10:44:54;;;;;;;1.40;1.30;;;;;;;22.66;77.02;99085.72;1729520;80;28064;-86
2022/08/10 10:47:51;;;;;;;2.92;1.67;;;;;;;22.77;76.98;99090.75;1721656;80;28177;-86
2022/08/10 10:50:30;;;;;;;1.67;1.52;;;;;;;22.89;76.80;99082.73;1715827;81;28146;-87
2022/08/10 10:53:14;;;;;;;3.45;1.50;;;;;;;23.07;76.74;99087.88;1724323;80;28076;-90
2022/08/10 10:55:53;;;;;;;3.05;1.50;;;;;;;23.21;76.36;99086.33;1715794;80;28298;-90
2022/08/10 10:58:38;;;;;;;3.70;1.40;;;;;;;23.31;75.78;99090.46;1727696;80;28021;-90
2022/08/10 11:01:21;;;;;;;2.65;1.47;;;;;;;23.34;74.83;99083.45;1719886;80;28101;-90
2022/08/10 11:04:08;;;;;;;2.37;1.50;;;;;;;23.32;73.99;99089.47;1728490;80;28093;-89
2022/08/10 11:06:38;;;;;;;2.27;1.50;;;;;;;23.38;73.52;99079.09;1703767;80;27997;-90
2022/08/10 11:09:11;;;;;;;;;;;;;;;23.44;72.83;99083.75;1709416;80;28106;-87
2022/08/10 11:11:39;;;;;;;;;;;;;;;23.47;72.12;99085.59;1741249;80;20231;-86
2022/08/10 11:14:19;;;;;;;;;;;;;;;23.52;71.44;99083.73;1725302;80;25630;-87
2022/08/10 11:16:47;;;;;;;;;;;;;;;23.54;70.77;99081.23;1730033;80;22103;-86
2022/08/10 11:19:29;;;;;;;4.65;1.50;;;;;;;23.65;70.78;99080.02;1722982;80;25563;-87
2022/08/10 11:22:05;;;;;;;3.35;1.70;;;;;;;23.78;70.55;99080.80;1728807;80;28086;-86
2022/08/10 11:24:57;;;;;;;2.05;1.77;;;;;;;23.85;69.97;99084.41;1745974;80;28134;-87
2022/08/10 11:27:47;;;;;;;2.12;1.37;;;;;;;23.89;69.67;99081.73;1726771;80;28190;-86
2022/08/10 11:30:32;;;;;;;3.30;1.80;;;;;;;23.91;69.21;99078.36;1663539;83;28061;-86
2022/08/10 11:33:16;;;;;;;2.20;1.32;;;;;;;23.96;69.04;99071.98;1713222;81;28019;-86
2022/08/10 11:35:46;;;;;;;1.57;1.12;;;;;;;24.08;68.83;99074.58;1711152;81;28037;-86
2022/08/10 11:38:25;;;;;;;2.08;1.40;;;;;;;24.22;68.81;99067.15;1696602;80;28030;-87
2022/08/10 11:41:10;;;;;;;3.27;1.25;;;;;;;24.39;68.88;99062.00;1712830;80;28231;-87
2022/08/10 11:43:39;;;;;;;2.67;1.50;;;;;;;24.44;68.26;99064.97;1727175;80;28178;-87
2022/08/10 11:46:19;;;;;;;1.77;1.20;;;;;;;24.38;66.90;99068.39;1729112;80;28049;-87
2022/08/10 11:48:52;;;;;;;5.10;1.80;;;;;;;24.38;66.31;99062.20;1722238;80;28139;-86
2022/08/10 11:51:27;;;;;;;1.95;1.00;;;;;;;24.38;65.52;99065.72;1728177;80;28211;-89
2022/08/10 11:54:06;;;;;;;2.37;1.37;;;;;;;24.39;64.63;99062.00;1731024;80;28112;-89
2022/08/10 11:56:36;;;;;;;1.20;1.02;;;;;;;24.41;63.86;99061.33;1736260;80;28187;-86
2022/08/10 12:01:49;;;;;;;2.25;1.45;;;;;;;24.29;61.42;99069.45;1738292;80;28045;-87
2022/08/10 12:04:17;;;;;;;2.60;1.30;;;;;;;24.26;60.69;99060.95;1728869;80;28090;-87
2022/08/10 12:06:45;;;;;;;1.82;1.45;;;;;;;24.15;59.97;99052.31;1738915;80;28089;-87